Time;durP1;ratioP1;P1;durP2;ratioP2;P2;SDS_P1;SDS_P2;PMS_P1;PMS_P2;Temp;Humidity;BMP_temperature;BMP_pressure;BME280_temperature;BME280_humidity;BME280_pressure;Samples;Min_cycle;Max_cycle;Signal;HPM_P1;HPM_P2
2024/02/22 00:01:05;;;;;;;1.93;0.60;;;;;;;;;;4879650;29;20206;-82
2024/02/22 00:03:33;;;;;;;1.23;0.60;;;;;;;;;;4878801;29;20724;-81
2024/02/22 00:06:00;;;;;;;0.83;0.60;;;;;;;;;;4879242;29;20237;-82
2024/02/22 00:08:28;;;;;;;2.10;0.50;;;;;;;;;;4878690;29;20206;-81
2024/02/22 00:10:57;;;;;;;1.37;0.50;;;;;;;;;;4879330;29;20233;-81
2024/02/22 00:13:24;;;;;;;1.17;0.60;;;;;;;;;;4878815;29;20206;-82
2024/02/22 00:15:55;;;;;;;1.67;0.70;;;;;;;;;;4878918;29;20198;-82
2024/02/22 00:18:22;;;;;;;1.53;0.60;;;;;;;;;;4878896;29;20876;-82
2024/02/22 00:20:49;;;;;;;1.60;0.60;;;;;;;;;;4879075;29;20288;-81
2024/02/22 00:23:17;;;;;;;1.77;0.70;;;;;;;;;;4878987;29;20301;-82
2024/02/22 00:25:45;;;;;;;2.10;0.70;;;;;;;;;;4878728;29;20232;-83
2024/02/22 00:28:13;;;;;;;2.10;0.80;;;;;;;;;;4878731;29;20201;-82
2024/02/22 00:30:40;;;;;;;3.33;0.70;;;;;;;;;;4879026;29;20319;-82
2024/02/22 00:33:07;;;;;;;3.23;0.80;;;;;;;;;;4878896;29;20237;-82
2024/02/22 00:35:34;;;;;;;3.37;0.80;;;;;;;;;;4878757;29;20289;-83
2024/02/22 00:38:02;;;;;;;3.90;0.70;;;;;;;;;;4878399;29;20231;-82
2024/02/22 00:40:29;;;;;;;1.40;0.70;;;;;;;;;;4878438;29;20209;-82
2024/02/22 00:42:58;;;;;;;2.37;0.63;;;;;;;;;;4878972;29;20217;-83
2024/02/22 00:45:25;;;;;;;3.10;0.90;;;;;;;;;;4878708;29;20289;-82
2024/02/22 00:47:52;;;;;;;1.60;0.70;;;;;;;;;;4878210;29;20631;-82
2024/02/22 00:50:19;;;;;;;1.10;0.60;;;;;;;;;;4877931;29;20237;-82
2024/02/22 00:52:47;;;;;;;1.20;0.60;;;;;;;;;;4878582;29;20213;-81
2024/02/22 00:55:14;;;;;;;2.50;0.60;;;;;;;;;;4878327;29;20212;-83
2024/02/22 00:57:41;;;;;;;0.40;0.40;;;;;;;;;;4878346;29;20651;-82
2024/02/22 01:00:11;;;;;;;2.17;0.60;;;;;;;;;;4877806;29;20237;-82
2024/02/22 01:02:38;;;;;;;1.40;0.40;;;;;;;;;;4879442;29;20265;-83
2024/02/22 01:05:06;;;;;;;1.03;0.40;;;;;;;;;;4896550;29;20197;-83
2024/02/22 01:07:33;;;;;;;0.73;0.30;;;;;;;;;;4896828;29;20205;-82
2024/02/22 01:10:00;;;;;;;1.83;0.40;;;;;;;;;;4896298;29;20761;-80
2024/02/22 01:12:29;;;;;;;1.80;0.70;;;;;;;;;;4896497;29;20634;-83
2024/02/22 01:14:56;;;;;;;0.67;0.30;;;;;;;;;;4896272;29;20257;-83
2024/02/22 01:17:25;;;;;;;0.90;0.30;;;;;;;;;;4896856;29;20260;-82
2024/02/22 01:19:52;;;;;;;1.10;0.40;;;;;;;;;;4896241;29;20271;-82
2024/02/22 01:22:19;;;;;;;1.93;0.30;;;;;;;;;;4878637;29;20631;-81
2024/02/22 01:24:47;;;;;;;1.47;0.60;;;;;;;;;;4877697;29;20289;-83
2024/02/22 01:27:15;;;;;;;1.33;0.40;;;;;;;;;;4878026;29;20229;-83
2024/02/22 01:29:43;;;;;;;1.20;0.50;;;;;;;;;;4877344;29;20270;-82
2024/02/22 01:32:10;;;;;;;0.83;0.70;;;;;;;;;;4877887;29;20572;-83
2024/02/22 01:34:39;;;;;;;1.37;0.63;;;;;;;;;;4877906;29;20233;-83
2024/02/22 01:37:07;;;;;;;2.20;0.50;;;;;;;;;;4877479;29;20233;-81
2024/02/22 01:39:35;;;;;;;1.43;0.60;;;;;;;;;;4876945;29;20234;-82
2024/02/22 01:42:02;;;;;;;2.30;0.63;;;;;;;;;;4877777;29;20212;-83
2024/02/22 01:44:30;;;;;;;3.60;0.67;;;;;;;;;;4877732;29;20301;-82
2024/02/22 01:46:57;;;;;;;2.20;0.83;;;;;;;;;;4877826;29;20304;-83
2024/02/22 01:49:25;;;;;;;2.20;0.80;;;;;;;;;;4877440;29;20251;-83
2024/02/22 01:51:57;;;;;;;2.30;0.80;;;;;;;;;;4877189;29;20366;-83
2024/02/22 01:54:24;;;;;;;1.87;0.80;;;;;;;;;;4877328;29;20213;-82
2024/02/22 01:56:51;;;;;;;2.63;0.77;;;;;;;;;;4877660;29;20229;-82
2024/02/22 01:59:18;;;;;;;1.10;0.70;;;;;;;;;;4877143;29;20269;-82
2024/02/22 02:01:46;;;;;;;2.53;1.10;;;;;;;;;;4877778;29;20206;-82
2024/02/22 02:04:14;;;;;;;1.70;0.80;;;;;;;;;;4877554;29;20699;-82
2024/02/22 02:06:42;;;;;;;2.27;1.00;;;;;;;;;;4877505;29;20250;-82
2024/02/22 02:09:12;;;;;;;3.37;1.10;;;;;;;;;;4877283;29;20216;-83
2024/02/22 02:11:41;;;;;;;2.67;1.00;;;;;;;;;;4877564;29;20206;-83
2024/02/22 02:14:08;;;;;;;2.83;0.90;;;;;;;;;;4877709;29;20273;-81
2024/02/22 02:16:35;;;;;;;1.00;0.67;;;;;;;;;;4877457;29;20292;-81
2024/02/22 02:19:06;;;;;;;1.73;0.80;;;;;;;;;;4877116;29;20320;-82
2024/02/22 02:21:35;;;;;;;1.07;0.70;;;;;;;;;;4877518;29;20580;-82
2024/02/22 02:24:08;;;;;;;2.93;1.00;;;;;;;;;;4877115;29;20237;-83
2024/02/22 02:26:37;;;;;;;1.53;0.57;;;;;;;;;;4877591;29;20202;-82
2024/02/22 02:29:04;;;;;;;0.93;0.60;;;;;;;;;;4877414;29;20237;-82
2024/02/22 02:31:31;;;;;;;1.97;0.53;;;;;;;;;;4877471;29;20288;-82
2024/02/22 02:33:58;;;;;;;0.90;0.50;;;;;;;;;;4877750;29;20292;-82
2024/02/22 02:36:25;;;;;;;2.07;0.60;;;;;;;;;;4876694;29;20751;-82
2024/02/22 02:38:53;;;;;;;0.80;0.57;;;;;;;;;;4877076;29;20232;-82
2024/02/22 02:41:20;;;;;;;1.90;0.47;;;;;;;;;;4877405;29;20266;-81
2024/02/22 02:43:48;;;;;;;1.63;0.70;;;;;;;;;;4877280;29;20772;-82
2024/02/22 02:46:16;;;;;;;0.73;0.60;;;;;;;;;;4876905;29;20214;-82
2024/02/22 02:48:43;;;;;;;0.67;0.50;;;;;;;;;;4877522;29;20710;-82
2024/02/22 02:51:10;;;;;;;1.53;0.70;;;;;;;;;;4879823;29;20287;-83
2024/02/22 02:53:37;;;;;;;1.10;0.60;;;;;;;;;;4879712;29;20266;-82
2024/02/22 02:56:05;;;;;;;1.03;0.57;;;;;;;;;;4872492;29;20564;-82
2024/02/22 02:58:32;;;;;;;1.97;0.50;;;;;;;;;;4861749;29;20305;-82
2024/02/22 03:01:01;;;;;;;1.17;0.50;;;;;;;;;;4861634;29;20293;-81
2024/02/22 03:03:28;;;;;;;1.63;0.60;;;;;;;;;;4861853;29;20289;-82
2024/02/22 03:05:55;;;;;;;3.97;0.70;;;;;;;;;;4861708;29;20266;-83
2024/02/22 03:08:22;;;;;;;0.77;0.50;;;;;;;;;;4877657;29;20206;-82
2024/02/22 03:10:49;;;;;;;1.50;0.50;;;;;;;;;;4880376;29;20218;-83
2024/02/22 03:13:17;;;;;;;3.20;0.63;;;;;;;;;;4880241;29;20202;-83
2024/02/22 03:15:45;;;;;;;3.50;0.70;;;;;;;;;;4880455;29;20269;-82
2024/02/22 03:18:14;;;;;;;2.57;0.47;;;;;;;;;;4880217;29;20210;-83
2024/02/22 03:20:42;;;;;;;0.77;0.40;;;;;;;;;;4879305;29;20324;-82
2024/02/22 03:23:09;;;;;;;3.23;0.50;;;;;;;;;;4880197;29;20206;-82
2024/02/22 03:25:37;;;;;;;1.90;0.50;;;;;;;;;;4879891;29;20684;-82
2024/02/22 03:28:06;;;;;;;2.03;0.60;;;;;;;;;;4879870;29;20258;-82
2024/02/22 03:30:33;;;;;;;1.73;0.57;;;;;;;;;;4880036;29;20198;-82
2024/02/22 03:33:01;;;;;;;1.83;0.57;;;;;;;;;;4879913;29;20228;-82
2024/02/22 03:35:30;;;;;;;3.47;0.53;;;;;;;;;;4878814;29;20584;-82
2024/02/22 03:37:57;;;;;;;2.53;0.50;;;;;;;;;;4877798;29;20212;-82
2024/02/22 03:40:24;;;;;;;1.13;0.40;;;;;;;;;;4885167;29;20736;-82
2024/02/22 03:42:51;;;;;;;2.57;0.37;;;;;;;;;;4898114;29;20741;-83
2024/02/22 03:45:18;;;;;;;1.13;0.30;;;;;;;;;;4898147;29;20584;-82
2024/02/22 03:47:46;;;;;;;1.77;0.40;;;;;;;;;;4898314;29;20292;-82
2024/02/22 03:50:13;;;;;;;2.53;0.40;;;;;;;;;;4897224;29;20738;-81
2024/02/22 03:52:41;;;;;;;0.50;0.30;;;;;;;;;;4898265;29;20363;-82
2024/02/22 03:55:10;;;;;;;1.10;0.30;;;;;;;;;;4897840;29;20236;-81
2024/02/22 03:57:37;;;;;;;1.50;0.40;;;;;;;;;;4880337;29;20202;-82
2024/02/22 04:00:06;;;;;;;0.50;0.20;;;;;;;;;;4878918;29;20798;-81
2024/02/22 04:02:33;;;;;;;1.80;0.37;;;;;;;;;;4878502;29;20731;-81
2024/02/22 04:05:01;;;;;;;1.93;0.50;;;;;;;;;;4878646;29;20771;-81
2024/02/22 04:07:28;;;;;;;1.70;0.30;;;;;;;;;;4879202;29;20202;-82
2024/02/22 04:09:56;;;;;;;1.00;0.30;;;;;;;;;;4879182;29;20241;-83
2024/02/22 04:12:23;;;;;;;1.03;0.30;;;;;;;;;;4879546;29;20229;-83
2024/02/22 04:14:51;;;;;;;2.03;0.37;;;;;;;;;;4879225;29;20237;-82
2024/02/22 04:17:18;;;;;;;0.60;0.30;;;;;;;;;;4878548;29;20650;-83
2024/02/22 04:19:45;;;;;;;0.77;0.30;;;;;;;;;;4878705;29;20261;-80
2024/02/22 04:22:12;;;;;;;0.40;0.20;;;;;;;;;;4879114;29;20213;-83
2024/02/22 04:24:40;;;;;;;1.50;0.33;;;;;;;;;;4878921;29;20206;-82
2024/02/22 04:27:09;;;;;;;0.67;0.23;;;;;;;;;;4878658;29;20209;-83
2024/02/22 04:29:37;;;;;;;1.60;0.30;;;;;;;;;;4878948;29;20288;-82
2024/02/22 04:32:04;;;;;;;1.73;0.30;;;;;;;;;;4877952;29;20284;-82
2024/02/22 04:34:31;;;;;;;0.70;0.13;;;;;;;;;;4878072;29;20638;-83
2024/02/22 04:36:58;;;;;;;0.90;0.20;;;;;;;;;;4878619;29;20293;-82
2024/02/22 04:39:26;;;;;;;1.40;0.33;;;;;;;;;;4878458;29;20321;-82
2024/02/22 04:41:54;;;;;;;1.00;0.30;;;;;;;;;;4878613;29;20288;-83
2024/02/22 04:44:23;;;;;;;0.33;0.10;;;;;;;;;;4878681;29;20202;-83
2024/02/22 04:46:50;;;;;;;0.60;0.30;;;;;;;;;;4879081;29;20206;-83
2024/02/22 04:49:17;;;;;;;1.10;0.20;;;;;;;;;;4878105;29;20209;-83
2024/02/22 04:51:44;;;;;;;0.90;0.30;;;;;;;;;;4878243;29;20233;-82
2024/02/22 04:54:11;;;;;;;0.40;0.20;;;;;;;;;;4878318;29;20208;-83
2024/02/22 04:56:39;;;;;;;0.80;0.30;;;;;;;;;;4878012;29;20232;-83
2024/02/22 04:59:06;;;;;;;0.90;0.30;;;;;;;;;;4878035;29;20285;-84
2024/02/22 05:01:34;;;;;;;0.50;0.20;;;;;;;;;;4878158;29;20288;-83
2024/02/22 05:04:01;;;;;;;0.50;0.20;;;;;;;;;;4878388;29;20289;-82
2024/02/22 05:06:29;;;;;;;0.87;0.63;;;;;;;;;;4878310;29;20288;-82
2024/02/22 05:08:56;;;;;;;0.47;0.30;;;;;;;;;;4878391;29;20208;-83
2024/02/22 05:11:23;;;;;;;2.00;0.20;;;;;;;;;;4878327;29;21099;-82
2024/02/22 05:13:53;;;;;;;0.77;0.30;;;;;;;;;;4877208;29;20712;-82
2024/02/22 05:16:21;;;;;;;0.50;0.37;;;;;;;;;;4877657;29;20592;-83
2024/02/22 05:18:50;;;;;;;1.20;0.40;;;;;;;;;;4877631;29;20213;-83
2024/02/22 05:21:17;;;;;;;1.23;0.40;;;;;;;;;;4877754;29;20269;-83
2024/02/22 05:23:44;;;;;;;1.40;0.53;;;;;;;;;;4877626;29;20298;-83
2024/02/22 05:26:12;;;;;;;1.03;0.30;;;;;;;;;;4878032;29;20206;-83
2024/02/22 05:28:39;;;;;;;0.77;0.30;;;;;;;;;;4878213;29;20201;-83
2024/02/22 05:31:20;;;;;;;0.93;0.30;;;;;;;;;;4877383;29;20298;-83
2024/02/22 05:33:47;;;;;;;0.70;0.20;;;;;;;;;;4878045;29;20289;-84
2024/02/22 05:36:16;;;;;;;1.40;0.40;;;;;;;;;;4877747;29;20293;-83
2024/02/22 05:38:44;;;;;;;0.60;0.30;;;;;;;;;;4877735;29;20209;-83
2024/02/22 05:41:11;;;;;;;0.90;0.50;;;;;;;;;;4877111;29;21076;-83
2024/02/22 05:43:38;;;;;;;0.70;0.30;;;;;;;;;;4877755;29;20209;-83
2024/02/22 05:46:07;;;;;;;0.57;0.30;;;;;;;;;;4877219;29;20746;-84
2024/02/22 05:48:34;;;;;;;1.83;0.70;;;;;;;;;;4878070;29;20757;-83
2024/02/22 05:51:01;;;;;;;2.10;0.67;;;;;;;;;;4877379;29;20280;-84
2024/02/22 05:53:30;;;;;;;0.80;0.50;;;;;;;;;;4877186;29;20744;-84
2024/02/22 05:55:57;;;;;;;3.03;1.20;;;;;;;;;;4877602;29;20201;-84
2024/02/22 05:58:24;;;;;;;2.37;1.20;;;;;;;;;;4877667;29;20292;-84
2024/02/22 06:00:51;;;;;;;4.57;1.10;;;;;;;;;;4877239;29;20273;-84
2024/02/22 06:03:19;;;;;;;1.70;1.27;;;;;;;;;;4878146;29;20315;-84
2024/02/22 06:05:47;;;;;;;1.57;0.80;;;;;;;;;;4877426;29;20254;-84
2024/02/22 06:08:15;;;;;;;0.90;0.43;;;;;;;;;;4877345;29;20242;-83
2024/02/22 06:10:43;;;;;;;1.77;0.47;;;;;;;;;;4877377;29;20256;-82
2024/02/22 06:13:10;;;;;;;1.43;0.40;;;;;;;;;;4877694;29;20736;-83
2024/02/22 06:15:38;;;;;;;1.10;0.50;;;;;;;;;;4876828;29;20206;-83
2024/02/22 06:18:05;;;;;;;0.60;0.30;;;;;;;;;;4877471;29;20594;-80
2024/02/22 06:20:32;;;;;;;1.47;0.50;;;;;;;;;;4877071;29;20261;-82
2024/02/22 06:23:00;;;;;;;1.73;0.70;;;;;;;;;;4877548;29;20645;-83
2024/02/22 06:25:27;;;;;;;1.03;0.60;;;;;;;;;;4879748;29;20229;-82
2024/02/22 06:27:57;;;;;;;0.93;0.50;;;;;;;;;;4881084;29;20237;-82
2024/02/22 06:30:24;;;;;;;0.93;0.47;;;;;;;;;;4879790;29;20210;-81
2024/02/22 06:32:51;;;;;;;2.00;0.73;;;;;;;;;;4880973;29;20213;-84
2024/02/22 06:35:21;;;;;;;0.93;0.33;;;;;;;;;;4880410;29;20244;-84
2024/02/22 06:37:49;;;;;;;0.40;0.33;;;;;;;;;;4882857;29;20201;-82
2024/02/22 06:40:16;;;;;;;0.47;0.23;;;;;;;;;;4881702;29;20256;-83
2024/02/22 06:42:43;;;;;;;1.27;0.50;;;;;;;;;;4882946;29;20689;-84
2024/02/22 06:45:13;;;;;;;0.67;0.50;;;;;;;;;;4894703;29;21105;-84
2024/02/22 06:47:40;;;;;;;1.07;0.40;;;;;;;;;;4891942;29;20682;-83
2024/02/22 06:50:08;;;;;;;1.17;0.30;;;;;;;;;;4898893;29;20775;-83
2024/02/22 06:52:35;;;;;;;0.97;0.30;;;;;;;;;;4899410;29;20201;-83
2024/02/22 06:55:02;;;;;;;0.90;0.37;;;;;;;;;;4899061;29;20197;-83
2024/02/22 06:57:30;;;;;;;1.17;0.50;;;;;;;;;;4876370;29;20233;-84
2024/02/22 06:59:57;;;;;;;1.53;0.60;;;;;;;;;;4869949;29;20703;-82
2024/02/22 07:02:25;;;;;;;0.93;0.43;;;;;;;;;;4880382;29;20264;-82
2024/02/22 07:04:52;;;;;;;1.50;0.50;;;;;;;;;;4880190;29;21314;-82
2024/02/22 07:07:20;;;;;;;1.13;0.40;;;;;;;;;;4880107;29;20296;-83
2024/02/22 07:09:47;;;;;;;1.53;0.93;;;;;;;;;;4880454;29;20202;-83
2024/02/22 07:12:14;;;;;;;1.50;0.30;;;;;;;;;;4879762;29;20209;-84
2024/02/22 07:14:41;;;;;;;0.80;0.40;;;;;;;;;;4879989;29;20233;-83
2024/02/22 07:17:09;;;;;;;1.77;0.70;;;;;;;;;;4879992;29;20293;-83
2024/02/22 07:19:37;;;;;;;2.57;0.90;;;;;;;;;;4879416;29;20748;-83
2024/02/22 07:22:05;;;;;;;2.40;0.60;;;;;;;;;;4879840;29;20237;-84
2024/02/22 07:24:32;;;;;;;2.27;0.70;;;;;;;;;;4879897;29;20202;-84
2024/02/22 07:26:59;;;;;;;1.30;1.07;;;;;;;;;;4879722;29;20760;-82
2024/02/22 07:29:27;;;;;;;1.50;0.50;;;;;;;;;;4879614;29;20205;-84
2024/02/22 07:31:55;;;;;;;1.87;0.90;;;;;;;;;;4879815;29;20232;-83
2024/02/22 07:34:22;;;;;;;1.50;1.33;;;;;;;;;;4879843;29;20215;-84
2024/02/22 07:36:51;;;;;;;1.80;0.70;;;;;;;;;;4879180;29;20209;-84
2024/02/22 07:39:18;;;;;;;2.63;1.00;;;;;;;;;;4879361;29;20217;-84
2024/02/22 07:41:45;;;;;;;2.00;0.77;;;;;;;;;;4879070;29;20256;-84
2024/02/22 07:44:12;;;;;;;1.53;0.60;;;;;;;;;;4879803;29;20679;-84
2024/02/22 07:46:39;;;;;;;1.00;0.60;;;;;;;;;;4879257;29;20206;-82
2024/02/22 07:49:06;;;;;;;1.10;0.50;;;;;;;;;;4879309;29;20212;-82
2024/02/22 07:51:34;;;;;;;1.07;0.67;;;;;;;;;;4879242;29;20316;-83
2024/02/22 07:54:02;;;;;;;1.53;0.57;;;;;;;;;;4879147;29;20587;-84
2024/02/22 07:56:30;;;;;;;1.43;0.60;;;;;;;;;;4878815;29;20229;-84
2024/02/22 07:58:58;;;;;;;1.40;0.50;;;;;;;;;;4878946;29;20209;-84
2024/02/22 08:01:25;;;;;;;0.63;0.40;;;;;;;;;;4879076;29;20297;-82
2024/02/22 08:03:54;;;;;;;1.00;0.50;;;;;;;;;;4875052;29;20210;-83
2024/02/22 08:06:21;;;;;;;1.93;0.50;;;;;;;;;;4870380;29;20211;-82
2024/02/22 08:08:48;;;;;;;1.40;0.40;;;;;;;;;;4874745;29;20628;-84
2024/02/22 08:11:17;;;;;;;2.30;0.50;;;;;;;;;;4868072;29;20214;-83
2024/02/22 08:13:44;;;;;;;0.83;0.30;;;;;;;;;;4860358;29;20199;-83
2024/02/22 08:16:11;;;;;;;1.73;0.50;;;;;;;;;;4860453;29;20210;-82
2024/02/22 08:18:38;;;;;;;1.43;0.30;;;;;;;;;;4860734;29;20676;-82
2024/02/22 08:21:07;;;;;;;1.53;0.50;;;;;;;;;;4859918;29;20789;-83
2024/02/22 08:23:34;;;;;;;1.10;0.60;;;;;;;;;;4860686;29;20289;-83
2024/02/22 08:26:02;;;;;;;1.20;0.33;;;;;;;;;;4869464;29;20206;-83
2024/02/22 08:28:32;;;;;;;2.53;0.70;;;;;;;;;;4878667;29;20233;-84
2024/02/22 08:31:00;;;;;;;1.13;0.50;;;;;;;;;;4878691;29;20229;-83
2024/02/22 08:33:28;;;;;;;2.03;0.43;;;;;;;;;;4878635;29;20202;-83
2024/02/22 08:35:56;;;;;;;1.33;0.80;;;;;;;;;;4878471;29;20213;-82
2024/02/22 08:38:25;;;;;;;2.97;0.93;;;;;;;;;;4878796;29;20236;-83
2024/02/22 08:40:52;;;;;;;1.73;0.70;;;;;;;;;;4877844;29;20229;-83
2024/02/22 08:43:19;;;;;;;1.60;0.70;;;;;;;;;;4871778;29;20217;-83
2024/02/22 08:45:49;;;;;;;2.40;0.80;;;;;;;;;;4874027;29;20300;-84
2024/02/22 08:48:16;;;;;;;1.93;0.80;;;;;;;;;;4877987;29;20565;-83
2024/02/22 08:50:43;;;;;;;1.93;0.80;;;;;;;;;;4878286;29;20273;-84
2024/02/22 08:53:10;;;;;;;1.17;0.60;;;;;;;;;;4878558;29;20258;-83
2024/02/22 08:55:37;;;;;;;1.33;0.70;;;;;;;;;;4878140;29;20202;-83
2024/02/22 08:58:05;;;;;;;0.97;0.40;;;;;;;;;;4877757;29;20233;-83
2024/02/22 09:00:32;;;;;;;1.60;0.70;;;;;;;;;;4877781;29;20202;-83
2024/02/22 09:03:01;;;;;;;1.25;0.77;;;;;;;;;;4878021;29;20271;-83
2024/02/22 09:05:28;;;;;;;1.03;0.60;;;;;;;;;;4878052;29;20213;-83
2024/02/22 09:07:56;;;;;;;1.85;0.60;;;;;;;;;;4877425;29;20625;-81
2024/02/22 09:10:23;;;;;;;2.20;0.88;;;;;;;;;;4877775;29;20198;-84
2024/02/22 09:12:51;;;;;;;1.60;0.70;;;;;;;;;;4877876;29;20652;-83
2024/02/22 09:15:18;;;;;;;2.88;0.60;;;;;;;;;;4877910;29;20297;-83
2024/02/22 09:17:46;;;;;;;0.88;0.40;;;;;;;;;;4877731;29;20288;-83
2024/02/22 09:20:15;;;;;;;1.95;0.70;;;;;;;;;;4877840;29;20209;-83
2024/02/22 09:22:44;;;;;;;1.90;0.53;;;;;;;;;;4877309;29;20305;-84
2024/02/22 09:25:11;;;;;;;1.63;0.80;;;;;;;;;;4877606;29;20202;-82
2024/02/22 09:27:38;;;;;;;2.70;0.90;;;;;;;;;;4877733;29;20233;-83
2024/02/22 09:30:06;;;;;;;2.13;0.50;;;;;;;;;;4877037;29;20209;-83
2024/02/22 09:32:33;;;;;;;1.57;0.80;;;;;;;;;;4878003;29;20296;-83
2024/02/22 09:35:01;;;;;;;2.53;0.67;;;;;;;;;;4877385;29;20846;-84
2024/02/22 09:37:30;;;;;;;1.67;0.60;;;;;;;;;;4877673;29;20214;-82
2024/02/22 09:39:58;;;;;;;2.13;0.60;;;;;;;;;;4877529;29;20225;-84
2024/02/22 09:42:26;;;;;;;1.83;0.73;;;;;;;;;;4877644;29;20301;-83
2024/02/22 09:44:55;;;;;;;2.25;0.70;;;;;;;;;;4877951;29;20202;-83
2024/02/22 09:47:23;;;;;;;1.48;0.60;;;;;;;;;;4877502;29;20300;-84
2024/02/22 09:49:50;;;;;;;2.38;0.65;;;;;;;;;;4877153;29;20201;-83
2024/02/22 09:52:19;;;;;;;3.47;0.70;;;;;;;;;;4877453;29;20206;-82
2024/02/22 09:54:48;;;;;;;2.70;0.80;;;;;;;;;;4877578;29;20667;-83
2024/02/22 09:57:15;;;;;;;4.28;0.90;;;;;;;;;;4877169;29;20745;-83
2024/02/22 09:59:48;;;;;;;3.13;1.00;;;;;;;;;;4878578;29;20198;-83
2024/02/22 10:02:16;;;;;;;2.65;1.00;;;;;;;;;;4881364;29;20407;-82
2024/02/22 10:04:51;;;;;;;1.83;0.70;;;;;;;;;;4880736;29;20265;-82
2024/02/22 10:07:22;;;;;;;2.50;0.90;;;;;;;;;;4881259;29;20299;-79
2024/02/22 10:09:51;;;;;;;2.53;0.60;;;;;;;;;;4880853;29;20292;-81
2024/02/22 10:12:24;;;;;;;3.43;0.63;;;;;;;;;;4881300;29;20229;-80
2024/02/22 10:14:52;;;;;;;1.37;0.40;;;;;;;;;;4881111;29;20248;-81
2024/02/22 10:17:22;;;;;;;2.37;0.50;;;;;;;;;;4881076;29;20206;-83
2024/02/22 10:19:56;;;;;;;1.27;0.50;;;;;;;;;;4880648;29;20293;-81
2024/02/22 10:22:24;;;;;;;1.13;0.60;;;;;;;;;;4880433;29;20237;-81
2024/02/22 10:24:53;;;;;;;2.17;0.65;;;;;;;;;;4880886;29;20210;-82
2024/02/22 10:27:21;;;;;;;3.25;1.10;;;;;;;;;;4880628;29;20206;-81
2024/02/22 10:29:49;;;;;;;1.70;0.50;;;;;;;;;;4880491;29;20198;-82
2024/02/22 10:32:18;;;;;;;0.65;0.30;;;;;;;;;;4881093;29;20206;-81
2024/02/22 10:34:45;;;;;;;1.40;0.38;;;;;;;;;;4879793;29;20304;-81
2024/02/22 10:37:13;;;;;;;0.52;0.20;;;;;;;;;;4880229;29;20248;-82
2024/02/22 10:39:41;;;;;;;0.30;0.20;;;;;;;;;;4880273;29;20229;-82
2024/02/22 10:42:11;;;;;;;0.80;0.20;;;;;;;;;;4880491;29;20285;-83
2024/02/22 10:44:38;;;;;;;0.50;0.20;;;;;;;;;;4880728;29;20213;-82
2024/02/22 10:47:06;;;;;;;0.65;0.20;;;;;;;;;;4880209;29;20202;-82
2024/02/22 10:49:33;;;;;;;0.88;0.30;;;;;;;;;;4880122;29;20619;-81
2024/02/22 10:52:01;;;;;;;0.20;0.20;;;;;;;;;;4880565;29;20246;-82
2024/02/22 10:54:30;;;;;;;1.48;0.40;;;;;;;;;;4880142;29;20245;-81
2024/02/22 10:56:57;;;;;;;0.60;0.22;;;;;;;;;;4880207;29;20201;-81
2024/02/22 10:59:28;;;;;;;0.68;0.40;;;;;;;;;;4880355;29;20230;-82
2024/02/22 11:01:55;;;;;;;1.02;0.45;;;;;;;;;;4879478;29;20238;-81
2024/02/22 11:04:23;;;;;;;0.85;0.35;;;;;;;;;;4878713;29;20297;-80
2024/02/22 11:06:50;;;;;;;0.88;0.30;;;;;;;;;;4879618;29;20293;-81
2024/02/22 11:09:18;;;;;;;1.08;0.43;;;;;;;;;;4879586;29;20205;-81
2024/02/22 11:11:45;;;;;;;1.50;0.50;;;;;;;;;;4879630;29;20240;-82
2024/02/22 11:14:14;;;;;;;1.70;0.40;;;;;;;;;;4879224;29;20300;-82
2024/02/22 11:16:43;;;;;;;1.40;0.50;;;;;;;;;;4877740;29;20240;-81
2024/02/22 11:19:12;;;;;;;2.00;0.70;;;;;;;;;;4871006;29;20205;-81
2024/02/22 11:21:39;;;;;;;1.85;0.63;;;;;;;;;;4879730;29;20238;-80
2024/02/22 11:24:07;;;;;;;2.20;0.50;;;;;;;;;;4868891;29;20210;-81
2024/02/22 11:26:35;;;;;;;2.47;0.70;;;;;;;;;;4861231;29;20272;-82
2024/02/22 11:29:02;;;;;;;4.00;0.70;;;;;;;;;;4861393;29;20305;-82
2024/02/22 11:31:30;;;;;;;3.20;0.55;;;;;;;;;;4864980;29;20206;-81
2024/02/22 11:33:58;;;;;;;2.33;0.70;;;;;;;;;;4879523;29;20246;-82
2024/02/22 11:36:26;;;;;;;1.63;0.50;;;;;;;;;;4879418;29;20289;-82
2024/02/22 11:39:00;;;;;;;3.43;0.53;;;;;;;;;;4877742;29;20285;-82
2024/02/22 11:41:30;;;;;;;3.03;0.90;;;;;;;;;;4877985;29;20305;-82
2024/02/22 11:44:03;;;;;;;3.50;1.20;;;;;;;;;;4876349;29;20209;-82
2024/02/22 11:46:34;;;;;;;3.37;0.70;;;;;;;;;;4877988;29;20241;-81
2024/02/22 11:49:03;;;;;;;3.72;0.90;;;;;;;;;;4878165;29;20994;-80
2024/02/22 11:51:30;;;;;;;2.77;0.50;;;;;;;;;;4878061;29;20229;-82
2024/02/22 11:53:58;;;;;;;2.77;0.53;;;;;;;;;;4877891;29;20292;-82
2024/02/22 11:56:25;;;;;;;3.20;0.70;;;;;;;;;;4877945;29;20646;-82
2024/02/22 11:58:52;;;;;;;2.07;0.60;;;;;;;;;;4878080;29;20278;-81
2024/02/22 12:01:20;;;;;;;2.97;0.77;;;;;;;;;;4878152;29;20319;-81
2024/02/22 12:03:48;;;;;;;3.33;0.80;;;;;;;;;;4877474;29;20194;-81
2024/02/22 12:06:16;;;;;;;1.57;0.70;;;;;;;;;;4875716;29;20218;-81
2024/02/22 12:08:44;;;;;;;3.53;0.77;;;;;;;;;;4877817;29;20213;-81
2024/02/22 12:11:11;;;;;;;3.67;0.73;;;;;;;;;;4877409;29;20308;-79
2024/02/22 12:13:38;;;;;;;4.10;1.30;;;;;;;;;;4878186;29;20205;-81
2024/02/22 12:16:06;;;;;;;4.37;0.67;;;;;;;;;;4877516;29;20198;-81
2024/02/22 12:18:33;;;;;;;2.70;0.70;;;;;;;;;;4877346;29;20202;-81
2024/02/22 12:21:01;;;;;;;2.00;0.70;;;;;;;;;;4877691;29;20587;-81
2024/02/22 12:23:30;;;;;;;4.87;0.93;;;;;;;;;;4876993;29;20267;-81
2024/02/22 12:26:06;;;;;;;2.57;0.93;;;;;;;;;;4875262;29;20210;-80
2024/02/22 12:28:33;;;;;;;1.80;0.53;;;;;;;;;;4877404;29;20624;-81
2024/02/22 12:31:01;;;;;;;3.37;0.70;;;;;;;;;;4877085;29;20672;-82
2024/02/22 12:33:28;;;;;;;1.67;0.60;;;;;;;;;;4878528;29;21111;-82
2024/02/22 12:35:57;;;;;;;1.97;0.47;;;;;;;;;;4878784;29;20293;-82
2024/02/22 12:38:24;;;;;;;2.33;0.63;;;;;;;;;;4878304;29;20305;-82
2024/02/22 12:40:52;;;;;;;2.80;0.70;;;;;;;;;;4878570;29;20205;-82
2024/02/22 12:43:20;;;;;;;3.73;1.10;;;;;;;;;;4877911;29;21000;-82
2024/02/22 12:45:49;;;;;;;2.37;0.87;;;;;;;;;;4878249;29;20249;-81
2024/02/22 12:48:16;;;;;;;4.97;1.20;;;;;;;;;;4878163;29;20241;-81
2024/02/22 12:50:43;;;;;;;7.67;1.50;;;;;;;;;;4878195;29;20625;-82
2024/02/22 12:53:11;;;;;;;5.30;1.07;;;;;;;;;;4878191;29;20687;-81
2024/02/22 12:55:39;;;;;;;6.20;1.40;;;;;;;;;;4872624;29;20270;-81
2024/02/22 12:58:07;;;;;;;5.43;1.10;;;;;;;;;;4860334;29;20213;-82
2024/02/22 13:00:35;;;;;;;8.07;1.33;;;;;;;;;;4877025;29;20302;-82
2024/02/22 13:03:03;;;;;;;4.57;1.50;;;;;;;;;;4876353;29;20678;-82
2024/02/22 13:05:30;;;;;;;7.20;1.43;;;;;;;;;;4868686;29;20299;-82
2024/02/22 13:07:58;;;;;;;6.27;1.13;;;;;;;;;;4859296;29;20572;-81
2024/02/22 13:10:25;;;;;;;6.67;1.93;;;;;;;;;;4859449;29;20248;-83
2024/02/22 13:12:53;;;;;;;6.07;2.00;;;;;;;;;;4859944;29;20245;-82
2024/02/22 13:15:21;;;;;;;7.80;2.00;;;;;;;;;;4858936;29;20234;-82
2024/02/22 13:17:48;;;;;;;7.33;2.00;;;;;;;;;;4859306;29;20313;-82
2024/02/22 13:20:16;;;;;;;7.90;1.90;;;;;;;;;;4859355;29;20765;-81
2024/02/22 13:22:43;;;;;;;9.97;1.80;;;;;;;;;;4859199;29;20265;-82
2024/02/22 13:25:11;;;;;;;10.37;2.20;;;;;;;;;;4877886;29;20701;-81
2024/02/22 13:27:38;;;;;;;12.27;2.60;;;;;;;;;;4877602;29;20309;-82
2024/02/22 13:30:09;;;;;;;8.00;1.87;;;;;;;;;;4876931;29;20576;-81
2024/02/22 13:32:38;;;;;;;10.43;1.97;;;;;;;;;;4877473;29;20265;-82
2024/02/22 13:35:08;;;;;;;9.57;2.20;;;;;;;;;;4876641;29;20289;-82
2024/02/22 13:37:36;;;;;;;11.67;1.80;;;;;;;;;;4877652;29;20209;-82
2024/02/22 13:40:05;;;;;;;8.33;1.20;;;;;;;;;;4877227;29;20198;-82
2024/02/22 13:42:33;;;;;;;6.90;1.23;;;;;;;;;;4877715;29;20677;-82
2024/02/22 13:45:00;;;;;;;6.10;1.07;;;;;;;;;;4877106;29;20212;-81
2024/02/22 13:47:27;;;;;;;6.30;1.00;;;;;;;;;;4877507;29;20296;-82
2024/02/22 13:49:57;;;;;;;3.67;0.73;;;;;;;;;;4876950;29;20300;-82
2024/02/22 13:52:24;;;;;;;2.37;0.60;;;;;;;;;;4876798;29;20553;-82
2024/02/22 13:54:52;;;;;;;1.57;0.50;;;;;;;;;;4876010;29;20202;-81
2024/02/22 13:57:19;;;;;;;2.93;0.63;;;;;;;;;;4877184;29;20292;-82
2024/02/22 13:59:47;;;;;;;2.43;0.60;;;;;;;;;;4873385;29;20214;-82
2024/02/22 14:02:14;;;;;;;2.60;0.50;;;;;;;;;;4858766;29;20636;-81
2024/02/22 14:04:41;;;;;;;3.43;0.60;;;;;;;;;;4858287;29;20623;-81
2024/02/22 14:07:12;;;;;;;4.53;0.40;;;;;;;;;;4858873;29;20293;-82
2024/02/22 14:09:39;;;;;;;1.80;0.40;;;;;;;;;;4871292;29;20217;-82
2024/02/22 14:12:07;;;;;;;3.53;0.50;;;;;;;;;;4877299;29;20205;-82
2024/02/22 14:14:34;;;;;;;1.23;0.23;;;;;;;;;;4877319;29;20202;-82
2024/02/22 14:17:02;;;;;;;1.37;0.10;;;;;;;;;;4877141;29;20645;-81
2024/02/22 14:19:29;;;;;;;1.30;0.40;;;;;;;;;;4877430;29;20201;-83
2024/02/22 14:21:56;;;;;;;0.57;0.20;;;;;;;;;;4877252;29;20209;-81
2024/02/22 14:24:26;;;;;;;0.80;0.20;;;;;;;;;;4860989;29;20244;-81
2024/02/22 14:26:53;;;;;;;1.23;0.47;;;;;;;;;;4859413;29;20294;-80
2024/02/22 14:29:21;;;;;;;2.07;0.43;;;;;;;;;;4862732;29;20688;-81
2024/02/22 14:31:49;;;;;;;0.77;0.30;;;;;;;;;;4860520;29;20205;-81
2024/02/22 14:34:17;;;;;;;1.87;0.63;;;;;;;;;;4859965;29;20229;-81
2024/02/22 14:36:44;;;;;;;3.20;0.60;;;;;;;;;;4858988;29;20572;-81
2024/02/22 14:39:12;;;;;;;2.27;0.50;;;;;;;;;;4876717;29;20698;-81
2024/02/22 14:41:40;;;;;;;3.20;0.60;;;;;;;;;;4872548;29;20206;-81
2024/02/22 14:44:08;;;;;;;3.27;0.50;;;;;;;;;;4863213;29;20728;-80
2024/02/22 14:46:35;;;;;;;2.90;0.60;;;;;;;;;;4861433;29;20234;-81